createdAt,value
2018-11-22T00:01:32.270Z,3.01
2018-11-22T00:04:05.729Z,2.99
2018-11-22T00:06:39.228Z,2.99
2018-11-22T00:09:14.346Z,2.98
2018-11-22T00:11:48.325Z,2.96
2018-11-22T00:14:21.685Z,2.96
2018-11-22T00:16:55.006Z,2.98
2018-11-22T00:19:28.689Z,2.97
2018-11-22T00:22:01.951Z,2.97
2018-11-22T00:24:35.729Z,2.97
2018-11-22T00:27:07.986Z,2.95
2018-11-22T00:29:41.568Z,2.95
2018-11-22T00:32:15.095Z,2.95
2018-11-22T00:34:48.407Z,2.95
2018-11-22T00:37:21.619Z,2.94
2018-11-22T00:39:55.484Z,2.90
2018-11-22T00:42:29.004Z,2.88
2018-11-22T00:45:02.937Z,2.86
2018-11-22T00:47:35.111Z,2.82
2018-11-22T00:50:10.431Z,2.77
2018-11-22T00:52:44.186Z,2.70
2018-11-22T00:55:22.531Z,2.66
2018-11-22T00:57:56.284Z,2.64
2018-11-22T01:00:30.448Z,2.65
2018-11-22T01:03:02.589Z,2.68
2018-11-22T01:05:36.628Z,2.67
2018-11-22T01:08:10.688Z,2.65
2018-11-22T01:10:40.368Z,2.67
2018-11-22T01:13:17.428Z,2.69
2018-11-22T01:15:51.268Z,2.66
2018-11-22T01:18:23.340Z,2.63
2018-11-22T01:20:56.886Z,2.61
2018-11-22T01:23:32.366Z,2.64
2018-11-22T01:26:06.128Z,2.63
2018-11-22T01:28:40.148Z,2.65
2018-11-22T01:31:14.198Z,2.65
2018-11-22T01:33:47.778Z,2.66
2018-11-22T01:36:21.679Z,2.64
2018-11-22T01:38:55.181Z,2.63
2018-11-22T01:41:29.954Z,2.61
2018-11-22T01:44:03.416Z,2.58
2018-11-22T01:46:37.146Z,2.51
2018-11-22T01:49:13.274Z,2.44
2018-11-22T01:51:46.628Z,2.41
2018-11-22T01:54:20.465Z,2.42
2018-11-22T01:56:52.627Z,2.46
2018-11-22T01:59:26.809Z,2.46
2018-11-22T02:02:00.391Z,2.44
2018-11-22T02:04:36.699Z,2.45
2018-11-22T02:07:09.138Z,2.45
2018-11-22T02:09:42.881Z,2.47
2018-11-22T02:12:16.045Z,2.49
2018-11-22T02:14:48.174Z,2.51
2018-11-22T02:17:21.760Z,2.52
2018-11-22T02:19:58.009Z,2.52
2018-11-22T02:22:31.624Z,2.50
2018-11-22T02:25:05.350Z,2.49
2018-11-22T02:27:38.600Z,2.49
2018-11-22T02:30:17.444Z,2.49
2018-11-22T02:32:52.564Z,2.50
2018-11-22T02:35:26.198Z,2.51
2018-11-22T02:40:42.375Z,2.49
2018-11-22T02:43:12.283Z,2.49
2018-11-22T02:45:46.179Z,2.49
2018-11-22T02:48:19.387Z,2.48
2018-11-22T02:50:49.455Z,2.50
2018-11-22T02:53:23.115Z,2.48
2018-11-22T02:55:54.268Z,2.47
2018-11-22T02:58:28.275Z,2.47
2018-11-22T03:00:58.159Z,2.46
2018-11-22T03:03:31.665Z,2.46
2018-11-22T03:06:03.140Z,2.43
2018-11-22T03:08:38.293Z,2.43
2018-11-22T03:11:09.625Z,2.42
2018-11-22T03:13:43.299Z,2.42
2018-11-22T03:16:14.358Z,2.42
2018-11-22T03:18:48.643Z,2.41
2018-11-22T03:21:18.712Z,2.40
2018-11-22T03:23:52.505Z,2.41
2018-11-22T03:26:23.469Z,2.42
2018-11-22T03:28:58.229Z,2.42
2018-11-22T03:31:29.778Z,2.42
2018-11-22T03:34:01.835Z,2.42
2018-11-22T03:36:33.106Z,2.41
2018-11-22T03:39:06.964Z,2.42
2018-11-22T03:41:38.475Z,2.42
2018-11-22T03:44:12.397Z,2.42
2018-11-22T03:46:43.460Z,2.45
2018-11-22T03:49:16.728Z,2.47
2018-11-22T03:51:47.702Z,2.46
2018-11-22T03:54:21.874Z,2.44
2018-11-22T03:56:53.198Z,2.44
2018-11-22T03:59:25.477Z,2.46
2018-11-22T04:01:57.040Z,2.46
2018-11-22T04:04:30.883Z,2.48
2018-11-22T04:07:01.892Z,2.48
2018-11-22T04:09:35.951Z,2.49
2018-11-22T04:12:07.201Z,2.50
2018-11-22T04:14:41.137Z,2.51
2018-11-22T04:17:11.276Z,2.52
2018-11-22T04:19:47.746Z,2.52
2018-11-22T04:22:17.436Z,2.51
2018-11-22T04:24:50.690Z,2.51
2018-11-22T04:27:20.462Z,2.52
2018-11-22T04:29:54.379Z,2.54
2018-11-22T04:32:25.941Z,2.57
2018-11-22T04:34:59.680Z,2.57
2018-11-22T04:37:31.064Z,2.58
2018-11-22T04:40:04.538Z,2.57
2018-11-22T04:42:36.008Z,2.58
2018-11-22T04:45:10.388Z,2.60
2018-11-22T04:47:42.077Z,2.58
2018-11-22T04:50:17.207Z,2.59
2018-11-22T04:52:49.365Z,2.56
2018-11-22T04:55:23.030Z,2.58
2018-11-22T04:57:57.925Z,2.61
2018-11-22T05:00:28.709Z,2.58
2018-11-22T05:02:59.778Z,2.58
2018-11-22T05:05:32.311Z,2.57
2018-11-22T05:08:01.977Z,2.59
2018-11-22T05:10:35.321Z,2.61
2018-11-22T05:13:04.955Z,2.63
2018-11-22T05:15:38.312Z,2.62
2018-11-22T05:18:08.185Z,2.63
2018-11-22T05:20:42.078Z,2.60
2018-11-22T05:23:13.591Z,2.59
2018-11-22T05:25:50.957Z,2.58
2018-11-22T05:28:22.130Z,2.62
2018-11-22T05:30:58.925Z,2.64
2018-11-22T05:33:30.440Z,2.66
2018-11-22T05:36:02.497Z,2.66
2018-11-22T05:38:33.643Z,2.63
2018-11-22T05:41:07.805Z,2.63
2018-11-22T05:43:39.215Z,2.62
2018-11-22T05:46:11.658Z,2.65
2018-11-22T05:48:43.856Z,2.64
2018-11-22T05:51:17.381Z,2.67
2018-11-22T05:56:17.599Z,2.66
2018-11-22T05:58:51.523Z,2.67
2018-11-22T06:01:22.928Z,2.66
2018-11-22T06:03:56.256Z,2.67
2018-11-22T06:06:27.541Z,2.67
2018-11-22T06:09:01.642Z,2.66
2018-11-22T06:11:33.135Z,2.70
2018-11-22T06:14:05.192Z,2.65
2018-11-22T06:16:36.605Z,2.67
2018-11-22T06:19:10.339Z,2.69
2018-11-22T06:21:41.672Z,2.71
2018-11-22T06:24:18.442Z,2.70
2018-11-22T06:26:49.539Z,2.74
2018-11-22T06:29:23.250Z,2.71
2018-11-22T06:31:55.020Z,2.72
2018-11-22T06:34:28.955Z,2.73
2018-11-22T06:37:00.152Z,2.73
2018-11-22T06:39:34.103Z,2.72
2018-11-22T06:42:05.352Z,2.75
2018-11-22T06:44:39.493Z,2.73
2018-11-22T06:47:11.124Z,2.73
2018-11-22T06:49:45.085Z,2.70
2018-11-22T06:52:16.383Z,2.78
2018-11-22T06:54:49.976Z,2.77
2018-11-22T06:57:21.509Z,2.77
2018-11-22T06:59:55.265Z,2.76
2018-11-22T07:02:26.515Z,2.77
2018-11-22T07:05:00.253Z,2.80
2018-11-22T07:07:31.201Z,2.82
2018-11-22T07:10:03.273Z,2.84
2018-11-22T07:12:34.868Z,2.88
2018-11-22T07:17:52.228Z,2.92
2018-11-22T07:20:24.269Z,2.92
2018-11-22T07:22:57.201Z,2.93
2018-11-22T07:25:33.038Z,2.94
2018-11-22T07:30:42.553Z,2.97
2018-11-22T07:33:14.217Z,3.01
2018-11-22T07:38:25.332Z,3.04
2018-11-22T07:40:57.640Z,3.05
2018-11-22T07:43:28.985Z,3.07
2018-11-22T07:46:05.979Z,3.15
2018-11-22T07:48:37.486Z,3.16
2018-11-22T07:51:11.417Z,3.18
2018-11-22T07:53:42.459Z,3.18
2018-11-22T07:56:16.375Z,3.25
2018-11-22T07:58:47.383Z,3.29
2018-11-22T08:01:17.667Z,3.29
2018-11-22T08:04:06.574Z,3.32
2018-11-22T08:06:36.758Z,3.36
2018-11-22T08:09:08.824Z,3.44
2018-11-22T08:11:39.394Z,3.49
2018-11-22T08:14:09.839Z,3.52
2018-11-22T08:16:40.072Z,3.58
2018-11-22T08:21:45.401Z,3.65
2018-11-22T08:24:16.460Z,3.69
2018-11-22T08:26:51.167Z,3.76
2018-11-22T08:29:23.763Z,3.77
2018-11-22T08:32:01.803Z,3.78
2018-11-22T08:37:09.436Z,3.80
2018-11-22T08:37:18.556Z,3.80
2018-11-22T08:39:49.496Z,3.83
2018-11-22T08:47:36.869Z,3.99
2018-11-22T08:50:08.318Z,3.98
2018-11-22T08:52:43.455Z,3.92
2018-11-22T08:55:15.252Z,3.98
2018-11-22T08:57:47.880Z,4.01
2018-11-22T09:00:20.461Z,4.03
2018-11-22T09:05:30.389Z,4.09
2018-11-22T09:08:04.684Z,4.16
2018-11-22T09:10:36.147Z,4.14
2018-11-22T09:13:11.162Z,4.12
2018-11-22T09:15:40.913Z,4.09
2018-11-22T09:21:05.948Z,4.28
2018-11-22T09:23:38.486Z,4.41
2018-11-22T09:26:11.858Z,4.38
2018-11-22T09:28:56.388Z,4.35
2018-11-22T09:31:21.948Z,4.42
2018-11-22T09:36:30.799Z,4.32
2018-11-22T09:39:20.873Z,4.38
2018-11-22T09:44:22.726Z,4.45
2018-11-22T09:46:57.023Z,4.50
2018-11-22T09:49:38.872Z,4.54
2018-11-22T09:52:10.893Z,4.53
2018-11-22T09:54:44.613Z,4.65
2018-11-22T10:08:01.647Z,4.63
2018-11-22T10:13:56.156Z,4.75
2018-11-22T12:18:17.572Z,5.20
2018-11-22T12:21:08.404Z,5.17
2018-11-22T12:23:37.974Z,5.05
2018-11-22T12:26:07.158Z,5.05
2018-11-22T12:28:36.066Z,5.00
2018-11-22T12:31:06.722Z,4.98
2018-11-22T12:33:41.177Z,5.01
2018-11-22T12:36:15.160Z,5.03
2018-11-22T12:38:44.787Z,4.99
2018-11-22T12:41:14.860Z,5.05
2018-11-22T12:43:44.219Z,5.07
2018-11-22T12:46:13.199Z,5.16
2018-11-22T12:48:42.520Z,5.21
2018-11-22T12:51:13.503Z,5.29
2018-11-22T12:53:42.388Z,5.31
2018-11-22T12:56:11.803Z,5.27
2018-11-22T12:58:40.984Z,5.24
2018-11-22T13:01:09.890Z,5.21
2018-11-22T13:03:38.999Z,5.21
2018-11-22T13:06:07.968Z,5.18
2018-11-22T13:08:37.121Z,5.08
2018-11-22T13:11:06.544Z,5.01
2018-11-22T13:13:35.503Z,4.96
2018-11-22T13:16:04.568Z,4.94
2018-11-22T13:18:33.435Z,4.96
2018-11-22T13:21:02.376Z,4.96
2018-11-22T13:23:31.404Z,4.97
2018-11-22T13:26:00.276Z,4.96
2018-11-22T13:28:29.279Z,5.01
2018-11-22T13:30:58.316Z,5.02
2018-11-22T13:33:28.656Z,5.00
2018-11-22T13:35:58.151Z,5.06
2018-11-22T13:38:27.158Z,5.08
2018-11-22T13:40:56.217Z,5.03
2018-11-22T13:43:25.237Z,4.98
2018-11-22T13:45:54.146Z,5.00
2018-11-22T13:48:23.126Z,5.01
2018-11-22T13:50:52.096Z,4.98
2018-11-22T13:53:22.404Z,4.97
2018-11-22T13:55:51.315Z,4.92
2018-11-22T13:58:20.281Z,4.92
2018-11-22T14:00:49.184Z,4.94
2018-11-22T14:03:20.371Z,4.91
2018-11-22T14:05:49.294Z,4.87
2018-11-22T14:08:18.248Z,4.81
2018-11-22T14:10:47.207Z,4.74
2018-11-22T14:13:29.279Z,4.67
2018-11-22T14:15:58.222Z,4.59
2018-11-22T14:18:27.274Z,4.55
2018-11-22T14:20:56.260Z,4.54
2018-11-22T14:23:25.448Z,4.54
2018-11-22T14:25:54.815Z,4.49
2018-11-22T14:28:24.172Z,4.47
2018-11-22T14:30:53.155Z,4.48
2018-11-22T14:33:29.558Z,4.47
2018-11-22T14:36:01.536Z,4.48
2018-11-22T14:38:30.860Z,4.46
2018-11-22T14:40:59.835Z,4.46
2018-11-22T14:43:36.340Z,4.43
2018-11-22T14:46:05.444Z,4.42
2018-11-22T14:48:34.711Z,4.40
2018-11-22T14:51:15.812Z,4.39
2018-11-22T14:54:05.691Z,4.39
2018-11-22T14:56:35.040Z,4.40
2018-11-22T14:59:04.014Z,4.40
2018-11-22T15:01:33.451Z,4.39
2018-11-22T15:04:13.268Z,4.37
2018-11-22T15:06:42.216Z,4.35
2018-11-22T15:09:11.443Z,4.33
2018-11-22T15:11:40.318Z,4.30
2018-11-22T15:14:12.500Z,4.27
2018-11-22T15:16:41.350Z,4.26
2018-11-22T15:19:10.327Z,4.24
2018-11-22T15:21:39.200Z,4.18
2018-11-22T15:24:08.132Z,4.15
2018-11-22T15:26:37.006Z,4.12
2018-11-22T15:29:06.039Z,4.12
2018-11-22T15:31:35.034Z,4.12
2018-11-22T15:34:05.089Z,4.09
2018-11-22T15:36:33.952Z,4.10
2018-11-22T15:39:03.076Z,4.08
2018-11-22T15:41:32.040Z,4.08
2018-11-22T15:44:00.996Z,4.09
2018-11-22T15:46:29.955Z,4.09
2018-11-22T15:48:58.836Z,4.09
2018-11-22T15:51:27.772Z,4.11
2018-11-22T15:53:58.671Z,4.10
2018-11-22T15:56:27.687Z,4.09
2018-11-22T15:58:56.606Z,4.09
2018-11-22T16:01:26.600Z,4.09
2018-11-22T16:04:03.767Z,4.06
2018-11-22T16:06:32.911Z,4.05
2018-11-22T16:09:01.866Z,4.02
2018-11-22T16:11:30.848Z,4.00
2018-11-22T16:14:04.760Z,4.00
2018-11-22T16:16:33.763Z,3.99
2018-11-22T16:19:02.699Z,3.97
2018-11-22T16:21:31.943Z,3.96
2018-11-22T16:24:01.071Z,3.94
2018-11-22T16:26:30.605Z,3.91
2018-11-22T16:28:59.579Z,3.90
2018-11-22T16:31:29.335Z,3.91
2018-11-22T16:34:11.234Z,3.90
2018-11-22T16:36:40.243Z,3.91
2018-11-22T16:39:10.400Z,3.90
2018-11-22T16:41:39.444Z,3.91
2018-11-22T16:44:08.586Z,3.89
2018-11-22T16:46:37.591Z,3.87
2018-11-22T16:49:07.514Z,3.83
2018-11-22T16:51:36.581Z,3.85
2018-11-22T16:54:08.864Z,3.84
2018-11-22T16:56:37.840Z,3.84
2018-11-22T16:59:06.904Z,3.85
2018-11-22T17:01:35.931Z,3.87
2018-11-22T17:04:05.015Z,3.87
2018-11-22T17:06:34.040Z,3.88
2018-11-22T17:09:03.128Z,3.88
2018-11-22T17:11:33.387Z,3.88
2018-11-22T17:14:01.226Z,3.87
2018-11-22T17:16:30.626Z,3.82
2018-11-22T17:18:59.672Z,3.77
2018-11-22T17:21:28.699Z,3.73
2018-11-22T17:23:57.892Z,3.67
2018-11-22T17:26:26.842Z,3.60
2018-11-22T17:28:55.845Z,3.54
2018-11-22T17:31:24.740Z,3.48
2018-11-22T17:33:54.533Z,3.44
2018-11-22T17:36:23.963Z,3.39
2018-11-22T17:38:52.984Z,3.36
2018-11-22T17:41:22.056Z,3.27
2018-11-22T17:43:51.109Z,3.21
2018-11-22T17:46:20.231Z,3.15
2018-11-22T17:48:49.194Z,3.10
2018-11-22T17:51:18.137Z,3.04
2018-11-22T17:53:47.171Z,2.98
2018-11-22T17:56:16.270Z,2.92
2018-11-22T17:58:45.238Z,2.85
2018-11-22T18:01:14.730Z,2.78
2018-11-22T18:03:43.394Z,2.75
2018-11-22T18:06:12.439Z,2.68
2018-11-22T18:08:41.591Z,2.60
2018-11-22T18:11:10.611Z,2.54
2018-11-22T18:13:39.670Z,2.44
2018-11-22T18:16:08.738Z,2.34
2018-11-22T18:18:37.801Z,2.22
2018-11-22T18:21:07.519Z,2.08
2018-11-22T18:23:36.796Z,1.93
2018-11-22T18:26:06.161Z,1.79
2018-11-22T18:28:35.567Z,1.66
2018-11-22T18:31:04.627Z,1.54
2018-11-22T18:33:33.671Z,1.50
2018-11-22T18:36:02.731Z,1.50
2018-11-22T18:38:31.868Z,1.54
2018-11-22T18:41:01.776Z,1.55
2018-11-22T18:43:30.390Z,1.56
2018-11-22T18:45:59.594Z,1.59
2018-11-22T18:48:28.958Z,1.65
2018-11-22T18:50:58.332Z,1.75
2018-11-22T18:53:27.388Z,1.88
2018-11-22T18:55:56.458Z,2.04
2018-11-22T18:58:25.521Z,2.21
2018-11-22T19:00:54.487Z,2.32
2018-11-22T19:03:23.475Z,2.37
2018-11-22T19:05:52.484Z,2.40
2018-11-22T19:08:21.570Z,2.42
2018-11-22T19:10:50.689Z,2.43
2018-11-22T19:13:19.816Z,2.49
2018-11-22T19:15:49.681Z,2.58
2018-11-22T19:18:19.350Z,2.62
2018-11-22T19:20:48.409Z,2.67
2018-11-22T19:23:17.901Z,2.73
2018-11-22T19:25:46.993Z,2.79
2018-11-22T19:28:16.614Z,2.86
2018-11-22T19:30:46.914Z,2.92
2018-11-22T19:33:17.412Z,2.99
2018-11-22T19:35:48.365Z,3.04
2018-11-22T19:38:17.331Z,3.09
2018-11-22T19:40:46.384Z,3.13
2018-11-22T19:43:15.528Z,3.16
2018-11-22T19:45:46.771Z,3.18
2018-11-22T19:48:15.928Z,3.19
2018-11-22T19:50:45.308Z,3.18
2018-11-22T19:53:15.421Z,3.16
2018-11-22T19:55:44.913Z,3.15
2018-11-22T19:58:15.213Z,3.13
2018-11-22T20:00:44.472Z,3.13
2018-11-22T20:03:13.649Z,3.13
2018-11-22T20:05:43.275Z,3.14
2018-11-22T20:08:14.231Z,3.16
2018-11-22T20:10:44.574Z,3.17
2018-11-22T20:13:13.736Z,3.19
2018-11-22T20:15:42.934Z,3.19
2018-11-22T20:18:12.734Z,3.18
2018-11-22T20:20:43.060Z,3.15
2018-11-22T20:23:11.131Z,3.15
2018-11-22T20:25:40.460Z,3.14
2018-11-22T20:28:09.627Z,3.13
2018-11-22T20:30:40.479Z,3.11
2018-11-22T20:33:09.535Z,3.12
2018-11-22T20:35:38.556Z,3.12
2018-11-22T20:38:07.717Z,3.14
2018-11-22T20:40:36.818Z,3.17
2018-11-22T20:43:07.081Z,3.19
2018-11-22T20:45:40.744Z,3.21
2018-11-22T20:48:06.514Z,3.22
2018-11-22T20:50:36.051Z,3.23
2018-11-22T20:53:05.171Z,3.23
2018-11-22T20:55:35.774Z,3.24
2018-11-22T20:58:05.979Z,3.25
2018-11-22T21:00:36.922Z,3.28
2018-11-22T21:03:06.315Z,3.30
2018-11-22T21:05:35.350Z,3.32
2018-11-22T21:08:04.339Z,3.33
2018-11-22T21:10:34.000Z,3.31
2018-11-22T21:13:03.080Z,3.26
2018-11-22T21:15:33.039Z,3.17
2018-11-22T21:18:06.576Z,3.06
2018-11-22T21:20:37.939Z,2.95
2018-11-22T21:23:07.027Z,2.85
2018-11-22T21:25:35.988Z,2.71
2018-11-22T21:28:05.285Z,2.50
2018-11-22T21:30:35.749Z,2.28
2018-11-22T21:33:04.854Z,2.00
2018-11-22T21:35:34.387Z,1.71
2018-11-22T21:38:04.627Z,1.44
2018-11-22T21:40:34.266Z,1.18
2018-11-22T21:43:03.295Z,0.95
2018-11-22T21:45:33.346Z,0.76
2018-11-22T21:48:02.338Z,0.59
2018-11-22T21:50:31.419Z,0.49
2018-11-22T21:53:00.558Z,0.41
2018-11-22T21:55:30.152Z,0.33
2018-11-22T21:58:00.363Z,0.25
2018-11-22T22:00:40.602Z,0.17
2018-11-22T22:03:11.212Z,0.10
2018-11-22T22:05:43.180Z,0.04
2018-11-22T22:08:12.328Z,-0.02
2018-11-22T22:10:41.420Z,-0.07
2018-11-22T22:13:10.682Z,-0.14
2018-11-22T22:15:40.020Z,-0.16
2018-11-22T22:18:09.672Z,-0.14
2018-11-22T22:20:38.856Z,-0.14
2018-11-22T22:23:13.232Z,-0.19
2018-11-22T22:25:37.312Z,-0.22
2018-11-22T22:28:06.403Z,-0.26
2018-11-22T22:30:35.956Z,-0.32
2018-11-22T22:33:06.226Z,-0.32
2018-11-22T22:35:35.474Z,-0.32
2018-11-22T22:38:04.545Z,-0.31
2018-11-22T22:40:34.176Z,-0.32
2018-11-22T22:43:03.268Z,-0.30
2018-11-22T22:45:33.323Z,-0.26
2018-11-22T22:48:02.367Z,-0.22
2018-11-22T22:50:31.965Z,-0.18
2018-11-22T22:53:01.560Z,-0.18
2018-11-22T22:55:31.391Z,-0.19
2018-11-22T22:58:00.530Z,-0.19
2018-11-22T23:00:35.062Z,-0.17
2018-11-22T23:03:05.652Z,-0.22
2018-11-22T23:05:34.935Z,-0.24
2018-11-22T23:08:04.089Z,-0.27
2018-11-22T23:10:33.286Z,-0.32
2018-11-22T23:13:03.031Z,-0.38
2018-11-22T23:15:32.581Z,-0.42
2018-11-22T23:18:01.596Z,-0.47
2018-11-22T23:20:32.916Z,-0.48
2018-11-22T23:23:01.994Z,-0.49
2018-11-22T23:25:31.216Z,-0.52
2018-11-22T23:28:00.278Z,-0.53
2018-11-22T23:30:33.376Z,-0.57
2018-11-22T23:33:03.913Z,-0.67
2018-11-22T23:35:33.054Z,-0.64
2018-11-22T23:38:02.200Z,-0.60
2018-11-22T23:40:32.192Z,-0.68
2018-11-22T23:43:01.355Z,-0.79
2018-11-22T23:45:31.525Z,-0.86
2018-11-22T23:48:00.696Z,-0.90
2018-11-22T23:50:30.966Z,-0.94
2018-11-22T23:53:01.096Z,-0.97
2018-11-22T23:55:30.300Z,-1.02
2018-11-22T23:57:59.413Z,-1.11
